sensor_id;sensor_type;location;lat;lon;timestamp;P1;durP1;ratioP1;P2;durP2;ratioP2
41921;SDS011;27609;51.002;5.354;2023-05-16T00:01:09;25.33;;;4.72;;
41921;SDS011;27609;51.002;5.354;2023-05-16T00:03:34;18.13;;;3.80;;
41921;SDS011;27609;51.002;5.354;2023-05-16T00:06:03;21.83;;;5.78;;
41921;SDS011;27609;51.002;5.354;2023-05-16T00:08:29;20.63;;;4.38;;
41921;SDS011;27609;51.002;5.354;2023-05-16T00:10:55;21.20;;;4.10;;
41921;SDS011;27609;51.002;5.354;2023-05-16T00:13:21;21.85;;;4.00;;
41921;SDS011;27609;51.002;5.354;2023-05-16T00:15:49;21.38;;;4.25;;
41921;SDS011;27609;51.002;5.354;2023-05-16T00:18:20;22.88;;;5.05;;
41921;SDS011;27609;51.002;5.354;2023-05-16T00:20:47;17.13;;;4.18;;
41921;SDS011;27609;51.002;5.354;2023-05-16T00:23:13;15.52;;;4.53;;
41921;SDS011;27609;51.002;5.354;2023-05-16T00:25:39;18.05;;;3.97;;
41921;SDS011;27609;51.002;5.354;2023-05-16T00:28:05;21.40;;;4.38;;
41921;SDS011;27609;51.002;5.354;2023-05-16T00:30:32;16.50;;;3.90;;
41921;SDS011;27609;51.002;5.354;2023-05-16T00:32:58;22.95;;;3.80;;
41921;SDS011;27609;51.002;5.354;2023-05-16T00:35:24;17.85;;;3.42;;
41921;SDS011;27609;51.002;5.354;2023-05-16T00:37:50;16.55;;;4.22;;
41921;SDS011;27609;51.002;5.354;2023-05-16T00:40:16;16.48;;;3.72;;
41921;SDS011;27609;51.002;5.354;2023-05-16T00:42:41;18.40;;;4.20;;
41921;SDS011;27609;51.002;5.354;2023-05-16T00:45:07;15.15;;;3.78;;
41921;SDS011;27609;51.002;5.354;2023-05-16T00:47:34;17.70;;;3.65;;
41921;SDS011;27609;51.002;5.354;2023-05-16T00:50:00;17.92;;;3.60;;
41921;SDS011;27609;51.002;5.354;2023-05-16T00:52:28;14.55;;;3.75;;
41921;SDS011;27609;51.002;5.354;2023-05-16T00:54:55;19.98;;;4.38;;
41921;SDS011;27609;51.002;5.354;2023-05-16T00:57:21;18.52;;;4.18;;
41921;SDS011;27609;51.002;5.354;2023-05-16T00:59:47;19.05;;;4.03;;
41921;SDS011;27609;51.002;5.354;2023-05-16T01:02:14;18.08;;;3.70;;
41921;SDS011;27609;51.002;5.354;2023-05-16T01:04:40;18.15;;;4.07;;
41921;SDS011;27609;51.002;5.354;2023-05-16T01:07:06;23.00;;;4.32;;
41921;SDS011;27609;51.002;5.354;2023-05-16T01:09:32;17.55;;;4.07;;
41921;SDS011;27609;51.002;5.354;2023-05-16T01:15:11;17.77;;;3.60;;
41921;SDS011;27609;51.002;5.354;2023-05-16T01:28:39;20.45;;;3.92;;
41921;SDS011;27609;51.002;5.354;2023-05-16T01:31:08;16.92;;;3.85;;
41921;SDS011;27609;51.002;5.354;2023-05-16T01:33:33;19.45;;;3.83;;
41921;SDS011;27609;51.002;5.354;2023-05-16T01:36:05;23.63;;;3.83;;
41921;SDS011;27609;51.002;5.354;2023-05-16T01:38:36;26.88;;;3.92;;
41921;SDS011;27609;51.002;5.354;2023-05-16T01:43:48;12.63;;;2.70;;
41921;SDS011;27609;51.002;5.354;2023-05-16T01:46:21;21.80;;;3.40;;
41921;SDS011;27609;51.002;5.354;2023-05-16T01:48:57;18.35;;;3.47;;
41921;SDS011;27609;51.002;5.354;2023-05-16T01:51:47;15.27;;;2.67;;
41921;SDS011;27609;51.002;5.354;2023-05-16T01:54:17;20.38;;;2.65;;
41921;SDS011;27609;51.002;5.354;2023-05-16T01:56:53;16.40;;;4.00;;
41921;SDS011;27609;51.002;5.354;2023-05-16T01:59:20;15.90;;;3.00;;
41921;SDS011;27609;51.002;5.354;2023-05-16T02:01:48;12.23;;;2.65;;
41921;SDS011;27609;51.002;5.354;2023-05-16T02:04:14;11.23;;;2.75;;
41921;SDS011;27609;51.002;5.354;2023-05-16T02:06:40;17.42;;;3.03;;
41921;SDS011;27609;51.002;5.354;2023-05-16T02:09:06;10.63;;;2.90;;
41921;SDS011;27609;51.002;5.354;2023-05-16T02:11:32;22.60;;;2.70;;
41921;SDS011;27609;51.002;5.354;2023-05-16T02:13:58;13.07;;;2.50;;
41921;SDS011;27609;51.002;5.354;2023-05-16T02:16:24;10.90;;;2.03;;
41921;SDS011;27609;51.002;5.354;2023-05-16T02:18:49;18.88;;;2.97;;
41921;SDS011;27609;51.002;5.354;2023-05-16T02:21:15;11.90;;;2.80;;
41921;SDS011;27609;51.002;5.354;2023-05-16T02:23:41;14.10;;;3.13;;
41921;SDS011;27609;51.002;5.354;2023-05-16T02:26:07;12.77;;;2.95;;
41921;SDS011;27609;51.002;5.354;2023-05-16T02:28:33;18.88;;;2.97;;
41921;SDS011;27609;51.002;5.354;2023-05-16T02:30:59;11.73;;;2.60;;
41921;SDS011;27609;51.002;5.354;2023-05-16T02:33:25;14.45;;;2.55;;
41921;SDS011;27609;51.002;5.354;2023-05-16T02:35:52;12.13;;;2.53;;
41921;SDS011;27609;51.002;5.354;2023-05-16T02:38:18;18.75;;;2.63;;
41921;SDS011;27609;51.002;5.354;2023-05-16T02:40:45;14.35;;;2.97;;
41921;SDS011;27609;51.002;5.354;2023-05-16T02:43:12;13.52;;;2.25;;
41921;SDS011;27609;51.002;5.354;2023-05-16T02:45:37;18.08;;;2.55;;
41921;SDS011;27609;51.002;5.354;2023-05-16T02:48:03;8.30;;;2.25;;
41921;SDS011;27609;51.002;5.354;2023-05-16T02:50:29;14.18;;;2.60;;
41921;SDS011;27609;51.002;5.354;2023-05-16T02:52:55;15.27;;;2.95;;
41921;SDS011;27609;51.002;5.354;2023-05-16T02:55:23;14.10;;;2.25;;
41921;SDS011;27609;51.002;5.354;2023-05-16T02:57:50;9.48;;;2.33;;
41921;SDS011;27609;51.002;5.354;2023-05-16T03:00:16;17.88;;;2.97;;
41921;SDS011;27609;51.002;5.354;2023-05-16T03:02:42;15.40;;;3.20;;
41921;SDS011;27609;51.002;5.354;2023-05-16T03:05:09;17.95;;;3.15;;
41921;SDS011;27609;51.002;5.354;2023-05-16T03:07:35;22.77;;;3.75;;
41921;SDS011;27609;51.002;5.354;2023-05-16T03:10:02;16.80;;;2.72;;
41921;SDS011;27609;51.002;5.354;2023-05-16T03:12:28;15.15;;;3.05;;
41921;SDS011;27609;51.002;5.354;2023-05-16T03:14:54;17.38;;;3.00;;
41921;SDS011;27609;51.002;5.354;2023-05-16T03:17:19;15.20;;;3.92;;
41921;SDS011;27609;51.002;5.354;2023-05-16T03:19:45;11.50;;;2.55;;
41921;SDS011;27609;51.002;5.354;2023-05-16T03:22:11;13.52;;;2.95;;
41921;SDS011;27609;51.002;5.354;2023-05-16T03:24:37;11.75;;;3.30;;
41921;SDS011;27609;51.002;5.354;2023-05-16T03:27:03;11.23;;;2.70;;
41921;SDS011;27609;51.002;5.354;2023-05-16T03:29:29;15.90;;;3.70;;
41921;SDS011;27609;51.002;5.354;2023-05-16T03:31:55;9.50;;;2.60;;
41921;SDS011;27609;51.002;5.354;2023-05-16T03:34:21;15.05;;;3.33;;
41921;SDS011;27609;51.002;5.354;2023-05-16T03:36:50;11.27;;;3.22;;
41921;SDS011;27609;51.002;5.354;2023-05-16T03:39:16;9.23;;;2.60;;
41921;SDS011;27609;51.002;5.354;2023-05-16T03:41:42;13.57;;;3.13;;
41921;SDS011;27609;51.002;5.354;2023-05-16T03:44:08;15.95;;;3.08;;
41921;SDS011;27609;51.002;5.354;2023-05-16T03:46:34;18.00;;;3.28;;
41921;SDS011;27609;51.002;5.354;2023-05-16T03:49:00;20.75;;;3.08;;
41921;SDS011;27609;51.002;5.354;2023-05-16T03:51:26;13.48;;;2.85;;
41921;SDS011;27609;51.002;5.354;2023-05-16T03:53:52;15.07;;;3.35;;
41921;SDS011;27609;51.002;5.354;2023-05-16T03:56:18;13.02;;;2.50;;
41921;SDS011;27609;51.002;5.354;2023-05-16T03:58:45;14.05;;;2.90;;
41921;SDS011;27609;51.002;5.354;2023-05-16T04:01:11;14.77;;;2.47;;
41921;SDS011;27609;51.002;5.354;2023-05-16T04:03:37;14.05;;;2.83;;
41921;SDS011;27609;51.002;5.354;2023-05-16T04:06:03;20.45;;;3.35;;
41921;SDS011;27609;51.002;5.354;2023-05-16T04:08:32;15.60;;;3.00;;
41921;SDS011;27609;51.002;5.354;2023-05-16T04:10:57;21.35;;;3.50;;
41921;SDS011;27609;51.002;5.354;2023-05-16T04:13:23;22.85;;;2.67;;
41921;SDS011;27609;51.002;5.354;2023-05-16T04:15:49;7.30;;;2.50;;
41921;SDS011;27609;51.002;5.354;2023-05-16T04:18:15;15.18;;;2.30;;
41921;SDS011;27609;51.002;5.354;2023-05-16T04:20:41;13.55;;;3.03;;
41921;SDS011;27609;51.002;5.354;2023-05-16T04:23:08;15.32;;;2.80;;
41921;SDS011;27609;51.002;5.354;2023-05-16T04:25:35;15.27;;;2.83;;
41921;SDS011;27609;51.002;5.354;2023-05-16T04:28:01;12.38;;;3.13;;
41921;SDS011;27609;51.002;5.354;2023-05-16T04:30:27;10.20;;;2.72;;
41921;SDS011;27609;51.002;5.354;2023-05-16T04:32:53;16.92;;;3.10;;
41921;SDS011;27609;51.002;5.354;2023-05-16T04:35:19;10.48;;;2.88;;
41921;SDS011;27609;51.002;5.354;2023-05-16T04:37:46;8.57;;;2.15;;
41921;SDS011;27609;51.002;5.354;2023-05-16T04:40:12;14.07;;;2.63;;
41921;SDS011;27609;51.002;5.354;2023-05-16T04:42:38;10.25;;;2.92;;
41921;SDS011;27609;51.002;5.354;2023-05-16T04:45:04;12.55;;;2.58;;
41921;SDS011;27609;51.002;5.354;2023-05-16T04:47:31;16.15;;;2.67;;
41921;SDS011;27609;51.002;5.354;2023-05-16T04:49:56;13.07;;;3.40;;
41921;SDS011;27609;51.002;5.354;2023-05-16T04:52:22;13.05;;;2.22;;
41921;SDS011;27609;51.002;5.354;2023-05-16T04:54:51;16.77;;;2.92;;
41921;SDS011;27609;51.002;5.354;2023-05-16T04:57:17;14.55;;;3.25;;
41921;SDS011;27609;51.002;5.354;2023-05-16T04:59:42;9.82;;;2.90;;
41921;SDS011;27609;51.002;5.354;2023-05-16T05:02:08;15.50;;;3.20;;
41921;SDS011;27609;51.002;5.354;2023-05-16T05:04:34;15.25;;;3.08;;
41921;SDS011;27609;51.002;5.354;2023-05-16T05:07:00;11.43;;;2.80;;
41921;SDS011;27609;51.002;5.354;2023-05-16T05:09:25;16.35;;;2.83;;
41921;SDS011;27609;51.002;5.354;2023-05-16T05:11:51;11.70;;;3.13;;
41921;SDS011;27609;51.002;5.354;2023-05-16T05:14:17;19.02;;;3.63;;
41921;SDS011;27609;51.002;5.354;2023-05-16T05:16:43;24.38;;;3.20;;
41921;SDS011;27609;51.002;5.354;2023-05-16T05:19:08;17.08;;;3.15;;
41921;SDS011;27609;51.002;5.354;2023-05-16T05:21:34;14.68;;;3.33;;
41921;SDS011;27609;51.002;5.354;2023-05-16T05:24:00;20.10;;;2.88;;
41921;SDS011;27609;51.002;5.354;2023-05-16T05:26:25;14.10;;;3.03;;
41921;SDS011;27609;51.002;5.354;2023-05-16T05:28:52;11.95;;;3.40;;
41921;SDS011;27609;51.002;5.354;2023-05-16T05:31:18;18.27;;;3.95;;
41921;SDS011;27609;51.002;5.354;2023-05-16T05:33:44;13.88;;;3.67;;
41921;SDS011;27609;51.002;5.354;2023-05-16T05:36:10;15.02;;;3.30;;
41921;SDS011;27609;51.002;5.354;2023-05-16T05:38:36;11.82;;;2.70;;
41921;SDS011;27609;51.002;5.354;2023-05-16T05:41:02;18.17;;;3.35;;
41921;SDS011;27609;51.002;5.354;2023-05-16T05:43:28;8.82;;;2.55;;
41921;SDS011;27609;51.002;5.354;2023-05-16T05:45:54;11.68;;;2.88;;
41921;SDS011;27609;51.002;5.354;2023-05-16T05:48:20;16.48;;;3.83;;
41921;SDS011;27609;51.002;5.354;2023-05-16T05:50:46;14.02;;;3.25;;
41921;SDS011;27609;51.002;5.354;2023-05-16T05:53:11;12.77;;;2.25;;
41921;SDS011;27609;51.002;5.354;2023-05-16T05:55:37;13.63;;;2.78;;
41921;SDS011;27609;51.002;5.354;2023-05-16T05:58:05;7.13;;;2.22;;
41921;SDS011;27609;51.002;5.354;2023-05-16T06:00:31;10.35;;;2.45;;
41921;SDS011;27609;51.002;5.354;2023-05-16T06:02:57;8.45;;;1.65;;
41921;SDS011;27609;51.002;5.354;2023-05-16T06:05:22;8.88;;;2.13;;
41921;SDS011;27609;51.002;5.354;2023-05-16T06:07:48;6.03;;;1.70;;
41921;SDS011;27609;51.002;5.354;2023-05-16T06:10:14;7.13;;;1.92;;
41921;SDS011;27609;51.002;5.354;2023-05-16T06:12:40;7.15;;;2.15;;
41921;SDS011;27609;51.002;5.354;2023-05-16T06:15:05;10.60;;;2.15;;
41921;SDS011;27609;51.002;5.354;2023-05-16T06:17:32;8.75;;;1.75;;
41921;SDS011;27609;51.002;5.354;2023-05-16T06:19:57;14.05;;;2.38;;
41921;SDS011;27609;51.002;5.354;2023-05-16T06:22:23;9.38;;;1.65;;
41921;SDS011;27609;51.002;5.354;2023-05-16T06:24:49;11.55;;;2.38;;
41921;SDS011;27609;51.002;5.354;2023-05-16T06:27:15;11.15;;;2.13;;
41921;SDS011;27609;51.002;5.354;2023-05-16T06:29:40;6.03;;;1.48;;
41921;SDS011;27609;51.002;5.354;2023-05-16T06:32:06;5.57;;;1.80;;
41921;SDS011;27609;51.002;5.354;2023-05-16T06:34:32;7.20;;;2.00;;
41921;SDS011;27609;51.002;5.354;2023-05-16T06:36:58;10.98;;;2.08;;
41921;SDS011;27609;51.002;5.354;2023-05-16T06:39:23;11.20;;;1.90;;
41921;SDS011;27609;51.002;5.354;2023-05-16T06:41:50;6.57;;;1.58;;
41921;SDS011;27609;51.002;5.354;2023-05-16T06:44:15;5.32;;;1.55;;
41921;SDS011;27609;51.002;5.354;2023-05-16T06:46:41;7.30;;;2.08;;
41921;SDS011;27609;51.002;5.354;2023-05-16T06:49:07;7.32;;;1.58;;
41921;SDS011;27609;51.002;5.354;2023-05-16T06:51:32;8.98;;;1.90;;
41921;SDS011;27609;51.002;5.354;2023-05-16T06:53:58;10.88;;;1.95;;
41921;SDS011;27609;51.002;5.354;2023-05-16T06:56:24;8.77;;;1.67;;
41921;SDS011;27609;51.002;5.354;2023-05-16T06:58:50;11.38;;;1.52;;
41921;SDS011;27609;51.002;5.354;2023-05-16T07:01:15;10.40;;;2.05;;
41921;SDS011;27609;51.002;5.354;2023-05-16T07:03:41;9.57;;;1.92;;
41921;SDS011;27609;51.002;5.354;2023-05-16T07:06:07;8.30;;;1.67;;
41921;SDS011;27609;51.002;5.354;2023-05-16T07:08:33;7.60;;;1.85;;
41921;SDS011;27609;51.002;5.354;2023-05-16T07:11:00;11.27;;;1.60;;
41921;SDS011;27609;51.002;5.354;2023-05-16T07:13:26;8.05;;;1.80;;
41921;SDS011;27609;51.002;5.354;2023-05-16T07:15:52;5.82;;;1.92;;
41921;SDS011;27609;51.002;5.354;2023-05-16T07:18:18;7.15;;;1.50;;
41921;SDS011;27609;51.002;5.354;2023-05-16T07:20:43;8.30;;;1.98;;
41921;SDS011;27609;51.002;5.354;2023-05-16T07:23:10;7.53;;;1.45;;
41921;SDS011;27609;51.002;5.354;2023-05-16T07:25:35;8.18;;;1.80;;
41921;SDS011;27609;51.002;5.354;2023-05-16T07:28:01;8.00;;;1.83;;
41921;SDS011;27609;51.002;5.354;2023-05-16T07:30:27;6.00;;;1.63;;
41921;SDS011;27609;51.002;5.354;2023-05-16T07:32:53;8.73;;;1.88;;
41921;SDS011;27609;51.002;5.354;2023-05-16T07:35:19;6.97;;;1.67;;
41921;SDS011;27609;51.002;5.354;2023-05-16T07:37:44;8.98;;;1.80;;
41921;SDS011;27609;51.002;5.354;2023-05-16T07:40:10;5.10;;;1.67;;
41921;SDS011;27609;51.002;5.354;2023-05-16T07:42:36;4.43;;;1.02;;
41921;SDS011;27609;51.002;5.354;2023-05-16T07:45:03;10.00;;;1.95;;
41921;SDS011;27609;51.002;5.354;2023-05-16T07:47:30;12.10;;;1.83;;
41921;SDS011;27609;51.002;5.354;2023-05-16T07:49:56;4.88;;;1.10;;
41921;SDS011;27609;51.002;5.354;2023-05-16T07:52:22;10.68;;;2.05;;
41921;SDS011;27609;51.002;5.354;2023-05-16T07:54:47;4.47;;;1.52;;
41921;SDS011;27609;51.002;5.354;2023-05-16T07:57:13;7.15;;;1.73;;
41921;SDS011;27609;51.002;5.354;2023-05-16T07:59:39;7.88;;;1.70;;
41921;SDS011;27609;51.002;5.354;2023-05-16T08:02:05;10.73;;;1.52;;
41921;SDS011;27609;51.002;5.354;2023-05-16T08:04:31;5.78;;;1.55;;
41921;SDS011;27609;51.002;5.354;2023-05-16T08:06:57;5.72;;;1.35;;
41921;SDS011;27609;51.002;5.354;2023-05-16T08:09:22;5.47;;;1.52;;
41921;SDS011;27609;51.002;5.354;2023-05-16T08:11:48;7.07;;;2.10;;
41921;SDS011;27609;51.002;5.354;2023-05-16T08:14:14;8.68;;;1.83;;
41921;SDS011;27609;51.002;5.354;2023-05-16T08:16:40;8.75;;;1.48;;
41921;SDS011;27609;51.002;5.354;2023-05-16T08:19:06;4.47;;;1.20;;
41921;SDS011;27609;51.002;5.354;2023-05-16T08:21:31;5.85;;;1.08;;
41921;SDS011;27609;51.002;5.354;2023-05-16T08:23:57;7.82;;;1.60;;
41921;SDS011;27609;51.002;5.354;2023-05-16T08:26:23;5.28;;;1.58;;
41921;SDS011;27609;51.002;5.354;2023-05-16T08:28:50;6.60;;;1.70;;
41921;SDS011;27609;51.002;5.354;2023-05-16T08:31:16;5.82;;;1.38;;
41921;SDS011;27609;51.002;5.354;2023-05-16T08:33:42;6.60;;;1.23;;
41921;SDS011;27609;51.002;5.354;2023-05-16T08:36:11;8.85;;;1.25;;
41921;SDS011;27609;51.002;5.354;2023-05-16T08:38:36;5.13;;;1.50;;
41921;SDS011;27609;51.002;5.354;2023-05-16T08:41:02;10.50;;;1.70;;
41921;SDS011;27609;51.002;5.354;2023-05-16T08:43:28;5.68;;;1.25;;
41921;SDS011;27609;51.002;5.354;2023-05-16T08:45:54;7.50;;;1.27;;
41921;SDS011;27609;51.002;5.354;2023-05-16T08:48:22;5.95;;;1.20;;
41921;SDS011;27609;51.002;5.354;2023-05-16T08:50:48;4.20;;;1.08;;
41921;SDS011;27609;51.002;5.354;2023-05-16T08:53:16;5.90;;;1.23;;
41921;SDS011;27609;51.002;5.354;2023-05-16T08:55:46;20.10;;;5.07;;
41921;SDS011;27609;51.002;5.354;2023-05-16T08:58:12;6.70;;;1.63;;
41921;SDS011;27609;51.002;5.354;2023-05-16T09:00:39;6.95;;;1.90;;
41921;SDS011;27609;51.002;5.354;2023-05-16T09:03:05;7.22;;;1.30;;
41921;SDS011;27609;51.002;5.354;2023-05-16T09:05:31;3.92;;;0.88;;
41921;SDS011;27609;51.002;5.354;2023-05-16T09:07:57;3.92;;;1.05;;
41921;SDS011;27609;51.002;5.354;2023-05-16T09:10:24;3.13;;;0.90;;
41921;SDS011;27609;51.002;5.354;2023-05-16T09:12:49;1.50;;;0.63;;
41921;SDS011;27609;51.002;5.354;2023-05-16T09:15:16;2.10;;;1.10;;
41921;SDS011;27609;51.002;5.354;2023-05-16T09:17:43;3.20;;;1.10;;
41921;SDS011;27609;51.002;5.354;2023-05-16T09:20:14;4.53;;;1.42;;
41921;SDS011;27609;51.002;5.354;2023-05-16T09:22:51;3.20;;;1.23;;
41921;SDS011;27609;51.002;5.354;2023-05-16T09:25:21;8.07;;;1.73;;
41921;SDS011;27609;51.002;5.354;2023-05-16T09:27:52;4.78;;;1.42;;
41921;SDS011;27609;51.002;5.354;2023-05-16T09:30:22;5.25;;;1.30;;
41921;SDS011;27609;51.002;5.354;2023-05-16T09:32:52;6.07;;;1.23;;
41921;SDS011;27609;51.002;5.354;2023-05-16T09:35:18;3.17;;;0.95;;
41921;SDS011;27609;51.002;5.354;2023-05-16T09:37:48;3.33;;;0.98;;
41921;SDS011;27609;51.002;5.354;2023-05-16T09:40:18;3.53;;;0.93;;
41921;SDS011;27609;51.002;5.354;2023-05-16T09:42:45;5.45;;;1.30;;
41921;SDS011;27609;51.002;5.354;2023-05-16T09:45:11;5.18;;;1.20;;
41921;SDS011;27609;51.002;5.354;2023-05-16T09:47:38;3.88;;;1.10;;
41921;SDS011;27609;51.002;5.354;2023-05-16T09:50:10;5.25;;;1.40;;
41921;SDS011;27609;51.002;5.354;2023-05-16T09:52:40;4.45;;;1.30;;
41921;SDS011;27609;51.002;5.354;2023-05-16T09:55:07;7.65;;;1.05;;
41921;SDS011;27609;51.002;5.354;2023-05-16T09:57:35;4.95;;;1.35;;
41921;SDS011;27609;51.002;5.354;2023-05-16T10:00:04;5.28;;;1.00;;
41921;SDS011;27609;51.002;5.354;2023-05-16T10:02:37;8.13;;;1.20;;
41921;SDS011;27609;51.002;5.354;2023-05-16T10:05:06;3.03;;;1.00;;
41921;SDS011;27609;51.002;5.354;2023-05-16T10:07:32;3.97;;;0.90;;
41921;SDS011;27609;51.002;5.354;2023-05-16T10:10:04;7.10;;;1.10;;
41921;SDS011;27609;51.002;5.354;2023-05-16T10:12:31;3.35;;;1.15;;
41921;SDS011;27609;51.002;5.354;2023-05-16T10:15:02;2.40;;;0.88;;
41921;SDS011;27609;51.002;5.354;2023-05-16T10:17:31;2.63;;;0.98;;
41921;SDS011;27609;51.002;5.354;2023-05-16T10:20:04;7.35;;;1.30;;
41921;SDS011;27609;51.002;5.354;2023-05-16T10:22:35;4.75;;;1.13;;
41921;SDS011;27609;51.002;5.354;2023-05-16T10:27:30;4.18;;;1.23;;
41921;SDS011;27609;51.002;5.354;2023-05-16T10:29:57;7.38;;;1.60;;
41921;SDS011;27609;51.002;5.354;2023-05-16T10:32:23;5.15;;;1.35;;
41921;SDS011;27609;51.002;5.354;2023-05-16T10:34:51;5.47;;;1.48;;
41921;SDS011;27609;51.002;5.354;2023-05-16T10:37:19;7.07;;;1.20;;
41921;SDS011;27609;51.002;5.354;2023-05-16T10:39:46;3.25;;;1.17;;
41921;SDS011;27609;51.002;5.354;2023-05-16T10:42:12;7.57;;;1.42;;
41921;SDS011;27609;51.002;5.354;2023-05-16T10:44:42;7.38;;;1.25;;
41921;SDS011;27609;51.002;5.354;2023-05-16T10:47:08;10.63;;;1.55;;
41921;SDS011;27609;51.002;5.354;2023-05-16T10:49:33;4.20;;;1.15;;
41921;SDS011;27609;51.002;5.354;2023-05-16T10:52:03;4.45;;;0.90;;
41921;SDS011;27609;51.002;5.354;2023-05-16T10:54:39;3.85;;;1.17;;
41921;SDS011;27609;51.002;5.354;2023-05-16T10:57:10;6.63;;;1.00;;
41921;SDS011;27609;51.002;5.354;2023-05-16T10:59:42;4.72;;;1.20;;
41921;SDS011;27609;51.002;5.354;2023-05-16T11:02:20;6.28;;;1.08;;
41921;SDS011;27609;51.002;5.354;2023-05-16T11:04:52;3.05;;;1.23;;
41921;SDS011;27609;51.002;5.354;2023-05-16T11:07:20;2.80;;;0.90;;
41921;SDS011;27609;51.002;5.354;2023-05-16T11:12:48;5.72;;;1.27;;
41921;SDS011;27609;51.002;5.354;2023-05-16T11:15:16;4.15;;;1.00;;
41921;SDS011;27609;51.002;5.354;2023-05-16T11:17:47;2.05;;;0.80;;
41921;SDS011;27609;51.002;5.354;2023-05-16T11:20:26;1.70;;;0.88;;
41921;SDS011;27609;51.002;5.354;2023-05-16T11:23:19;3.88;;;0.82;;
41921;SDS011;27609;51.002;5.354;2023-05-16T11:25:46;3.80;;;0.70;;
41921;SDS011;27609;51.002;5.354;2023-05-16T11:28:14;2.95;;;0.70;;
41921;SDS011;27609;51.002;5.354;2023-05-16T11:30:42;2.63;;;1.02;;
41921;SDS011;27609;51.002;5.354;2023-05-16T11:33:09;2.22;;;0.80;;
41921;SDS011;27609;51.002;5.354;2023-05-16T11:35:37;3.38;;;1.00;;
41921;SDS011;27609;51.002;5.354;2023-05-16T11:38:03;4.00;;;1.15;;
41921;SDS011;27609;51.002;5.354;2023-05-16T11:40:28;1.50;;;0.70;;
41921;SDS011;27609;51.002;5.354;2023-05-16T11:42:58;4.97;;;0.95;;
41921;SDS011;27609;51.002;5.354;2023-05-16T11:47:50;5.45;;;0.80;;
41921;SDS011;27609;51.002;5.354;2023-05-16T11:50:17;3.17;;;0.98;;
41921;SDS011;27609;51.002;5.354;2023-05-16T11:52:45;3.67;;;1.15;;
41921;SDS011;27609;51.002;5.354;2023-05-16T11:55:18;4.22;;;1.27;;
41921;SDS011;27609;51.002;5.354;2023-05-16T11:57:47;3.13;;;1.38;;
41921;SDS011;27609;51.002;5.354;2023-05-16T12:00:19;4.60;;;2.15;;
41921;SDS011;27609;51.002;5.354;2023-05-16T12:02:47;3.92;;;1.13;;
41921;SDS011;27609;51.002;5.354;2023-05-16T12:05:16;3.88;;;1.42;;
41921;SDS011;27609;51.002;5.354;2023-05-16T12:07:44;2.75;;;1.10;;
41921;SDS011;27609;51.002;5.354;2023-05-16T12:10:12;4.70;;;1.10;;
41921;SDS011;27609;51.002;5.354;2023-05-16T12:12:46;4.20;;;0.98;;
41921;SDS011;27609;51.002;5.354;2023-05-16T12:15:13;8.77;;;0.93;;
41921;SDS011;27609;51.002;5.354;2023-05-16T12:17:40;4.72;;;1.23;;
41921;SDS011;27609;51.002;5.354;2023-05-16T12:20:07;5.40;;;1.00;;
41921;SDS011;27609;51.002;5.354;2023-05-16T12:22:39;4.47;;;1.25;;
41921;SDS011;27609;51.002;5.354;2023-05-16T12:27:56;6.28;;;1.90;;
41921;SDS011;27609;51.002;5.354;2023-05-16T12:30:23;6.53;;;1.20;;
41921;SDS011;27609;51.002;5.354;2023-05-16T12:32:55;5.63;;;1.83;;
41921;SDS011;27609;51.002;5.354;2023-05-16T12:35:21;3.15;;;0.90;;
41921;SDS011;27609;51.002;5.354;2023-05-16T12:37:48;4.40;;;1.20;;
41921;SDS011;27609;51.002;5.354;2023-05-16T12:40:15;8.52;;;1.30;;
41921;SDS011;27609;51.002;5.354;2023-05-16T12:42:47;3.55;;;1.60;;
41921;SDS011;27609;51.002;5.354;2023-05-16T12:45:15;10.13;;;1.60;;
41921;SDS011;27609;51.002;5.354;2023-05-16T12:47:42;4.07;;;1.35;;
41921;SDS011;27609;51.002;5.354;2023-05-16T12:50:09;4.78;;;1.30;;
41921;SDS011;27609;51.002;5.354;2023-05-16T12:52:48;11.05;;;1.90;;
41921;SDS011;27609;51.002;5.354;2023-05-16T12:55:18;4.00;;;1.88;;
41921;SDS011;27609;51.002;5.354;2023-05-16T12:57:46;3.88;;;1.23;;
41921;SDS011;27609;51.002;5.354;2023-05-16T13:00:13;1.70;;;0.88;;
41921;SDS011;27609;51.002;5.354;2023-05-16T13:02:40;6.60;;;1.42;;
41921;SDS011;27609;51.002;5.354;2023-05-16T13:05:06;4.25;;;1.48;;
41921;SDS011;27609;51.002;5.354;2023-05-16T13:07:32;5.35;;;1.35;;
41921;SDS011;27609;51.002;5.354;2023-05-16T13:09:59;7.00;;;2.05;;
41921;SDS011;27609;51.002;5.354;2023-05-16T13:12:24;3.97;;;1.10;;
41921;SDS011;27609;51.002;5.354;2023-05-16T13:14:54;5.43;;;1.30;;
41921;SDS011;27609;51.002;5.354;2023-05-16T13:17:20;6.20;;;1.40;;
41921;SDS011;27609;51.002;5.354;2023-05-16T13:19:47;5.30;;;1.77;;
41921;SDS011;27609;51.002;5.354;2023-05-16T13:22:13;5.78;;;2.05;;
41921;SDS011;27609;51.002;5.354;2023-05-16T13:24:39;2.03;;;1.10;;
41921;SDS011;27609;51.002;5.354;2023-05-16T13:27:05;3.20;;;1.20;;
41921;SDS011;27609;51.002;5.354;2023-05-16T13:29:31;6.97;;;1.63;;
41921;SDS011;27609;51.002;5.354;2023-05-16T13:31:57;3.10;;;1.30;;
41921;SDS011;27609;51.002;5.354;2023-05-16T13:34:22;5.50;;;1.40;;
41921;SDS011;27609;51.002;5.354;2023-05-16T13:36:48;4.68;;;1.27;;
41921;SDS011;27609;51.002;5.354;2023-05-16T13:39:14;2.85;;;1.20;;
41921;SDS011;27609;51.002;5.354;2023-05-16T13:41:40;5.63;;;1.25;;
41921;SDS011;27609;51.002;5.354;2023-05-16T13:44:06;8.70;;;1.55;;
41921;SDS011;27609;51.002;5.354;2023-05-16T13:46:32;5.78;;;1.35;;
41921;SDS011;27609;51.002;5.354;2023-05-16T13:48:58;2.78;;;1.05;;
41921;SDS011;27609;51.002;5.354;2023-05-16T13:51:24;3.85;;;1.20;;
41921;SDS011;27609;51.002;5.354;2023-05-16T13:53:50;3.38;;;1.55;;
41921;SDS011;27609;51.002;5.354;2023-05-16T13:56:15;4.80;;;1.20;;
41921;SDS011;27609;51.002;5.354;2023-05-16T13:58:41;4.03;;;1.20;;
41921;SDS011;27609;51.002;5.354;2023-05-16T14:01:07;2.97;;;1.40;;
41921;SDS011;27609;51.002;5.354;2023-05-16T14:03:33;2.78;;;1.20;;
41921;SDS011;27609;51.002;5.354;2023-05-16T14:06:00;5.82;;;1.30;;
41921;SDS011;27609;51.002;5.354;2023-05-16T14:08:26;5.85;;;1.17;;
41921;SDS011;27609;51.002;5.354;2023-05-16T14:10:53;5.80;;;1.67;;
41921;SDS011;27609;51.002;5.354;2023-05-16T14:13:18;3.08;;;1.83;;
41921;SDS011;27609;51.002;5.354;2023-05-16T14:15:45;6.13;;;1.58;;
41921;SDS011;27609;51.002;5.354;2023-05-16T14:18:10;4.70;;;1.20;;
41921;SDS011;27609;51.002;5.354;2023-05-16T14:20:37;5.70;;;1.83;;
41921;SDS011;27609;51.002;5.354;2023-05-16T14:23:03;4.90;;;1.40;;
41921;SDS011;27609;51.002;5.354;2023-05-16T14:25:28;5.78;;;1.33;;
41921;SDS011;27609;51.002;5.354;2023-05-16T14:27:54;4.53;;;1.50;;
41921;SDS011;27609;51.002;5.354;2023-05-16T14:30:20;4.45;;;1.40;;
41921;SDS011;27609;51.002;5.354;2023-05-16T14:32:46;3.42;;;1.52;;
41921;SDS011;27609;51.002;5.354;2023-05-16T14:35:11;6.32;;;1.50;;
41921;SDS011;27609;51.002;5.354;2023-05-16T14:37:37;5.57;;;1.45;;
41921;SDS011;27609;51.002;5.354;2023-05-16T14:40:03;3.40;;;1.30;;
41921;SDS011;27609;51.002;5.354;2023-05-16T14:42:30;2.75;;;1.30;;
41921;SDS011;27609;51.002;5.354;2023-05-16T14:44:56;3.33;;;1.05;;
41921;SDS011;27609;51.002;5.354;2023-05-16T14:47:22;4.40;;;1.20;;
41921;SDS011;27609;51.002;5.354;2023-05-16T14:49:48;2.50;;;1.55;;
41921;SDS011;27609;51.002;5.354;2023-05-16T14:52:13;5.22;;;1.48;;
41921;SDS011;27609;51.002;5.354;2023-05-16T14:54:39;10.13;;;1.98;;
41921;SDS011;27609;51.002;5.354;2023-05-16T14:57:05;6.10;;;1.70;;
41921;SDS011;27609;51.002;5.354;2023-05-16T14:59:31;3.10;;;1.40;;
41921;SDS011;27609;51.002;5.354;2023-05-16T15:01:57;4.38;;;1.70;;
41921;SDS011;27609;51.002;5.354;2023-05-16T15:04:23;5.28;;;1.65;;
41921;SDS011;27609;51.002;5.354;2023-05-16T15:06:50;5.38;;;1.85;;
41921;SDS011;27609;51.002;5.354;2023-05-16T15:09:16;7.00;;;2.13;;